Overview Statistics Trail Chart Weather Telemetry Raw packets
 

This is the latest recevied weather packets stored in our database for station/object KQ4WWD. If no packets are shown the sender has not sent any weather packets the latest 10 day(s).

<< 48 49 50 51 52 53 54 >>
Time Temp. Humidity Pressure Rain* Wind** Luminosity Snow
1788288871 28.89° C 82% 1016.4 hPa 0 mm - 203 W/m² -
1788288566 28.89° C 85% 1016.3 hPa 0 mm - 347 W/m² -
1788288261 28.89° C 85% 1016.3 hPa 0 mm - 321 W/m² -
1788287957 29.44° C 83% 1016.1 hPa 0 mm - 281 W/m² -
1788287656 30° C 82% 1016 hPa 0 mm - 252 W/m² -
1788287352 30.56° C 80% 1016 hPa 0 mm - 232 W/m² -
1788287047 30° C 80% 1015.8 hPa 0 mm - 212 W/m² -
1788286743 30° C 79% 1016.1 hPa 0 mm - 207 W/m² -
1788286443 30° C 79% 1016.1 hPa 0 mm - 203 W/m² -
1788286141 30.56° C 79% 1016 hPa 0 mm - 203 W/m² -
1788285841 30.56° C 76% 1016.2 hPa 0 mm - 216 W/m² -
1788285539 30° C 76% 1016.2 hPa 0 mm - 214 W/m² -
1788285234 30° C 79% 1016.3 hPa 0 mm - 182 W/m² -
1788284929 30° C 79% 1016.2 hPa 0 mm - 164 W/m² -
1788284625 30.56° C 78% 1016.4 hPa 0 mm - 135 W/m² -
1788284320 30.56° C 80% 1016.4 hPa 0 mm - 181 W/m² -
1788284015 30.56° C 80% 1016.3 hPa 0 mm - 220 W/m² -
1788283712 30° C 82% 1016.4 hPa 0 mm - 276 W/m² -
1788283411 30° C 84% 1016.5 hPa 0 mm - 222 W/m² -
1788283109 30.56° C 80% 1016.6 hPa 0 mm - 212 W/m² -
1788282808 30° C 81% 1016.5 hPa 0 mm - 330 W/m² -
1788282507 30° C 83% 1016.8 hPa 0 mm - 619 W/m² -
1788282203 28.89° C 85% 1016.8 hPa 0 mm - 847 W/m² -
1788281901 28.33° C 86% 1016.8 hPa 0 mm - 945 W/m² -
1788281596 28.89° C 87% 1016.8 hPa 0 mm - 678 W/m² -

* Rain latest hour (hover to see other rain measurements)
** Current wind speed in m/s (hover to see current wind gust speed)